createdAt,value
2018-05-18T00:00:45.718Z,42.90
2018-05-18T00:03:13.195Z,44.95
2018-05-18T00:05:40.684Z,43.42
2018-05-18T00:08:08.936Z,45.95
2018-05-18T00:10:36.447Z,35.38
2018-05-18T00:13:03.927Z,42.22
2018-05-18T00:15:31.443Z,49.75
2018-05-18T00:17:59.681Z,53.47
2018-05-18T00:20:27.181Z,45.35
2018-05-18T00:22:54.662Z,45.60
2018-05-18T00:25:22.143Z,47.10
2018-05-18T00:27:49.636Z,48.85
2018-05-18T00:30:17.126Z,51.03
2018-05-18T00:32:45.387Z,42.40
2018-05-18T00:35:13.626Z,44.50
2018-05-18T00:37:41.136Z,47.15
2018-05-18T00:40:09.387Z,43.03
2018-05-18T00:42:36.884Z,47.85
2018-05-18T00:45:04.362Z,45.97
2018-05-18T00:47:31.863Z,53.50
2018-05-18T00:49:59.341Z,50.67
2018-05-18T00:52:27.614Z,37.50
2018-05-18T00:54:55.850Z,43.08
2018-05-18T00:57:23.361Z,42.58
2018-05-18T00:59:50.833Z,50.25
2018-05-18T01:02:18.307Z,34.30
2018-05-18T01:04:45.802Z,37.95
2018-05-18T01:07:13.283Z,43.47
2018-05-18T01:09:41.548Z,40.28
2018-05-18T01:12:09.031Z,40.00
2018-05-18T01:14:37.289Z,37.42
2018-05-18T01:17:05.528Z,35.10
2018-05-18T01:19:33.031Z,41.45
2018-05-18T01:22:01.286Z,41.92
2018-05-18T01:24:28.784Z,43.42
2018-05-18T01:26:56.266Z,46.35
2018-05-18T01:29:23.759Z,44.10
2018-05-18T01:31:51.245Z,37.58
2018-05-18T01:34:19.508Z,38.70
2018-05-18T01:36:48.160Z,35.88
2018-05-18T01:39:15.654Z,38.88
2018-05-18T01:41:43.134Z,46.65
2018-05-18T01:44:11.389Z,37.92
2018-05-18T01:46:38.872Z,40.20
2018-05-18T01:49:06.385Z,42.28
2018-05-18T01:51:34.631Z,46.50
2018-05-18T01:54:02.132Z,39.45
2018-05-18T01:56:29.621Z,51.47
2018-05-18T01:58:57.971Z,43.22
2018-05-18T02:01:25.471Z,38.15
2018-05-18T02:03:52.951Z,42.25
2018-05-18T02:06:20.451Z,31.12
2018-05-18T02:08:47.947Z,33.58
2018-05-18T02:11:15.446Z,36.42
2018-05-18T02:13:42.918Z,42.20
2018-05-18T02:16:10.419Z,33.17
2018-05-18T02:18:37.911Z,43.97
2018-05-18T02:21:05.415Z,44.45
2018-05-18T02:23:32.891Z,35.08
2018-05-18T02:26:00.391Z,32.33
2018-05-18T02:28:27.865Z,32.72
2018-05-18T02:30:55.388Z,39.78
2018-05-18T02:33:22.915Z,36.53
2018-05-18T02:35:51.180Z,38.92
2018-05-18T02:38:18.708Z,42.40
2018-05-18T02:40:46.206Z,35.00
2018-05-18T02:43:14.492Z,40.40
2018-05-18T02:45:41.973Z,40.20
2018-05-18T02:48:09.482Z,32.92
2018-05-18T02:50:36.982Z,31.60
2018-05-18T02:53:04.464Z,34.65
2018-05-18T02:55:31.979Z,38.72
2018-05-18T02:58:00.219Z,38.33
2018-05-18T03:00:27.699Z,33.67
2018-05-18T03:02:55.199Z,39.20
2018-05-18T03:05:22.691Z,33.75
2018-05-18T03:07:50.201Z,40.38
2018-05-18T03:10:18.439Z,39.85
2018-05-18T03:12:45.939Z,33.40
2018-05-18T03:15:13.517Z,43.92
2018-05-18T03:17:41.014Z,36.78
2018-05-18T03:20:08.488Z,35.80
2018-05-18T03:22:35.989Z,39.53
2018-05-18T03:25:03.469Z,31.50
2018-05-18T03:27:30.983Z,33.15
2018-05-18T03:29:59.224Z,37.50
2018-05-18T03:32:26.729Z,33.63
2018-05-18T03:34:54.231Z,34.17
2018-05-18T03:37:21.746Z,38.67
2018-05-18T03:39:49.247Z,45.10
2018-05-18T03:42:16.791Z,35.20
2018-05-18T03:44:44.283Z,36.28
2018-05-18T03:47:11.763Z,33.35
2018-05-18T03:49:39.259Z,33.17
2018-05-18T03:52:06.742Z,36.08
2018-05-18T03:54:34.235Z,40.42
2018-05-18T03:57:01.716Z,31.25
2018-05-18T03:59:29.226Z,33.17
2018-05-18T04:02:08.406Z,29.90
2018-05-18T04:04:47.899Z,35.40
2018-05-18T04:07:27.223Z,33.22
2018-05-18T04:09:54.720Z,44.50
2018-05-18T04:12:22.198Z,40.85
2018-05-18T04:14:50.462Z,31.95
2018-05-18T04:17:18.723Z,35.13
2018-05-18T04:19:46.191Z,34.40
2018-05-18T04:22:13.724Z,27.23
2018-05-18T04:24:41.192Z,33.55
2018-05-18T04:27:08.733Z,40.78
2018-05-18T04:29:36.235Z,36.63
2018-05-18T04:32:04.505Z,29.65
2018-05-18T04:34:31.976Z,28.85
2018-05-18T04:37:00.263Z,34.78
2018-05-18T04:39:27.745Z,41.72
2018-05-18T04:41:55.243Z,28.75
2018-05-18T04:44:22.715Z,33.35
2018-05-18T04:46:50.210Z,29.45
2018-05-18T04:49:17.776Z,30.37
2018-05-18T04:51:45.280Z,29.25
2018-05-18T04:54:12.778Z,29.65
2018-05-18T04:56:40.268Z,28.55
2018-05-18T04:59:07.784Z,28.20
2018-05-18T05:01:36.024Z,25.90
2018-05-18T05:04:03.617Z,23.10
2018-05-18T05:06:31.867Z,27.40
2018-05-18T05:08:59.370Z,34.28
2018-05-18T05:11:26.863Z,36.17
2018-05-18T05:13:54.348Z,29.30
2018-05-18T05:16:21.861Z,27.58
2018-05-18T05:18:49.340Z,26.55
2018-05-18T05:21:16.831Z,28.08
2018-05-18T05:23:44.378Z,23.10
2018-05-18T05:26:11.822Z,23.90
2018-05-18T05:28:39.297Z,25.25
2018-05-18T05:31:06.859Z,23.42
2018-05-18T05:33:34.355Z,24.27
2018-05-18T05:36:02.701Z,22.92
2018-05-18T05:38:30.184Z,25.58
2018-05-18T05:40:58.443Z,20.35
2018-05-18T05:43:25.948Z,22.00
2018-05-18T05:45:53.441Z,22.83
2018-05-18T05:48:20.915Z,21.27
2018-05-18T05:50:48.415Z,18.08
2018-05-18T05:53:15.901Z,23.90
2018-05-18T05:55:43.463Z,22.37
2018-05-18T05:58:10.936Z,22.75
2018-05-18T06:00:38.760Z,24.58
2018-05-18T06:03:06.290Z,19.12
2018-05-18T06:05:34.576Z,19.67
2018-05-18T06:08:02.832Z,22.27
2018-05-18T06:10:30.317Z,24.98
2018-05-18T06:12:58.586Z,24.55
2018-05-18T06:15:26.862Z,26.17
2018-05-18T06:17:55.140Z,20.67
2018-05-18T06:20:23.404Z,19.08
2018-05-18T06:22:50.920Z,17.42
2018-05-18T06:25:18.411Z,25.50
2018-05-18T06:27:45.916Z,18.60
2018-05-18T06:30:13.400Z,28.30
2018-05-18T06:32:40.992Z,18.17
2018-05-18T06:35:08.532Z,15.13
2018-05-18T06:37:36.575Z,16.60
2018-05-18T06:40:04.066Z,23.70
2018-05-18T06:42:31.611Z,19.75
2018-05-18T06:44:59.100Z,16.08
2018-05-18T06:47:26.637Z,18.03
2018-05-18T06:49:54.191Z,21.70
2018-05-18T06:52:21.738Z,14.20
2018-05-18T06:54:49.206Z,15.17
2018-05-18T06:57:16.723Z,16.77
2018-05-18T06:59:44.201Z,13.90
2018-05-18T07:02:11.819Z,12.23
2018-05-18T07:04:39.294Z,18.40
2018-05-18T07:07:07.551Z,15.33
2018-05-18T07:09:35.058Z,15.60
2018-05-18T07:12:02.847Z,16.30
2018-05-18T07:14:30.359Z,12.30
2018-05-18T07:16:58.727Z,13.30
2018-05-18T07:19:26.228Z,18.67
2018-05-18T07:21:54.439Z,14.20
2018-05-18T07:24:21.999Z,15.50
2018-05-18T07:26:50.367Z,18.70
2018-05-18T07:29:17.893Z,19.77
2018-05-18T07:31:45.384Z,21.17
2018-05-18T07:34:15.121Z,21.67
2018-05-18T07:36:42.626Z,15.30
2018-05-18T07:39:10.140Z,12.97
2018-05-18T07:41:38.633Z,15.40
2018-05-18T07:44:06.921Z,19.83
2018-05-18T07:46:35.177Z,19.43
2018-05-18T07:49:03.458Z,12.93
2018-05-18T07:51:31.806Z,14.70
2018-05-18T07:53:59.311Z,13.97
2018-05-18T07:56:26.787Z,18.77
2018-05-18T07:58:54.337Z,16.10
2018-05-18T08:01:21.835Z,14.30
2018-05-18T08:03:49.359Z,12.90
2018-05-18T08:06:17.819Z,16.27
2018-05-18T08:08:46.068Z,17.83
2018-05-18T08:11:13.582Z,21.20
2018-05-18T08:13:41.067Z,18.70
2018-05-18T08:16:08.571Z,20.20
2018-05-18T08:18:36.823Z,14.30
2018-05-18T08:21:04.330Z,16.67
2018-05-18T08:23:41.364Z,19.23
2018-05-18T08:26:09.636Z,17.03
2018-05-18T08:28:49.184Z,17.50
2018-05-18T08:31:16.697Z,19.47
2018-05-18T08:33:44.272Z,16.40
2018-05-18T08:36:12.638Z,13.83
2018-05-18T08:38:40.122Z,17.50
2018-05-18T08:41:07.627Z,14.57
2018-05-18T08:43:35.982Z,18.63
2018-05-18T08:46:03.498Z,19.37
2018-05-18T08:48:30.996Z,13.97
2018-05-18T08:50:58.557Z,15.30
2018-05-18T08:53:26.056Z,20.33
2018-05-18T08:55:54.315Z,15.40
2018-05-18T08:58:21.856Z,18.23
2018-05-18T09:00:49.366Z,12.53
2018-05-18T09:03:16.892Z,13.00
2018-05-18T09:05:44.400Z,15.70
2018-05-18T09:08:11.883Z,12.67
2018-05-18T09:10:39.386Z,15.30
2018-05-18T09:13:07.662Z,13.87
2018-05-18T09:15:35.153Z,15.40
2018-05-18T09:18:02.660Z,17.10
2018-05-18T09:20:30.195Z,17.37
2018-05-18T09:22:57.700Z,15.83
2018-05-18T09:25:25.983Z,11.13
2018-05-18T09:27:54.552Z,14.73
2018-05-18T09:30:22.160Z,16.67
2018-05-18T09:32:49.568Z,11.80
2018-05-18T09:35:17.843Z,13.43
2018-05-18T09:37:45.326Z,19.27
2018-05-18T09:40:13.051Z,14.80
2018-05-18T09:42:41.304Z,14.23
2018-05-18T09:45:08.852Z,16.80
2018-05-18T09:47:37.091Z,15.20
2018-05-18T09:50:05.359Z,19.20
2018-05-18T09:52:33.623Z,13.10
2018-05-18T09:55:01.171Z,17.10
2018-05-18T09:57:28.624Z,15.97
2018-05-18T09:59:56.095Z,15.50
2018-05-18T10:02:23.605Z,12.43
2018-05-18T10:04:51.076Z,19.47
2018-05-18T10:07:18.577Z,14.60
2018-05-18T10:09:46.052Z,16.23
2018-05-18T10:12:14.336Z,18.13
2018-05-18T10:14:42.590Z,13.77
2018-05-18T10:17:10.875Z,15.17
2018-05-18T10:19:38.347Z,20.67
2018-05-18T10:22:06.620Z,15.10
2018-05-18T10:24:34.860Z,15.13
2018-05-18T10:27:02.470Z,15.27
2018-05-18T10:29:29.846Z,18.67
2018-05-18T10:31:57.364Z,17.73
2018-05-18T10:34:24.838Z,16.57
2018-05-18T10:36:53.114Z,15.40
2018-05-18T10:39:21.372Z,15.10
2018-05-18T10:41:48.859Z,17.07
2018-05-18T10:44:17.150Z,16.03
2018-05-18T10:46:44.627Z,20.17
2018-05-18T10:49:12.170Z,22.60
2018-05-18T10:51:39.674Z,13.40
2018-05-18T10:54:07.217Z,19.40
2018-05-18T10:56:34.691Z,15.53
2018-05-18T10:59:02.232Z,14.67
2018-05-18T11:01:31.646Z,14.93
2018-05-18T11:03:59.190Z,13.60
2018-05-18T11:06:26.693Z,11.73
2018-05-18T11:08:54.954Z,15.90
2018-05-18T11:11:22.443Z,14.23
2018-05-18T11:13:50.736Z,16.40
2018-05-18T11:16:18.236Z,14.90
2018-05-18T11:18:45.765Z,12.90
2018-05-18T11:21:13.275Z,13.83
2018-05-18T11:23:40.755Z,13.47
2018-05-18T11:26:09.017Z,18.00
2018-05-18T11:28:37.382Z,17.13
2018-05-18T11:31:04.864Z,17.53
2018-05-18T11:33:33.143Z,15.80
2018-05-18T11:36:01.384Z,16.37
2018-05-18T11:38:28.886Z,18.93
2018-05-18T11:40:57.130Z,13.63
2018-05-18T11:43:24.655Z,16.90
2018-05-18T11:45:52.132Z,19.80
2018-05-18T11:48:19.652Z,16.77
2018-05-18T11:50:47.163Z,19.80
2018-05-18T11:53:16.140Z,17.93
2018-05-18T11:55:43.671Z,20.07
2018-05-18T11:58:11.205Z,23.73
2018-05-18T12:00:39.508Z,17.20
2018-05-18T12:03:07.006Z,14.50
2018-05-18T12:05:34.491Z,13.83
2018-05-18T12:08:02.741Z,15.47
2018-05-18T12:10:30.232Z,14.57
2018-05-18T12:12:58.542Z,15.93
2018-05-18T12:15:26.043Z,17.30
2018-05-18T12:17:53.523Z,14.87
2018-05-18T12:20:21.793Z,14.77
2018-05-18T12:22:50.071Z,13.80
2018-05-18T12:25:18.343Z,13.00
2018-05-18T12:27:46.606Z,14.50
2018-05-18T12:30:14.139Z,12.60
2018-05-18T12:32:41.631Z,12.40
2018-05-18T12:35:09.112Z,15.03
2018-05-18T12:37:36.627Z,13.73
2018-05-18T12:40:04.127Z,14.93
2018-05-18T12:42:32.420Z,12.77
2018-05-18T12:44:59.935Z,15.63
2018-05-18T12:47:27.444Z,16.60
2018-05-18T12:49:54.927Z,13.93
2018-05-18T12:52:22.439Z,13.10
2018-05-18T12:54:50.672Z,16.23
2018-05-18T12:57:18.154Z,11.67
2018-05-18T12:59:45.652Z,12.23
2018-05-18T13:02:13.139Z,11.97
2018-05-18T13:04:40.638Z,10.23
2018-05-18T13:07:08.110Z,16.43
2018-05-18T13:09:36.392Z,18.20
2018-05-18T13:12:04.664Z,12.73
2018-05-18T13:14:33.419Z,11.03
2018-05-18T13:17:00.938Z,14.57
2018-05-18T13:19:28.433Z,8.17
2018-05-18T13:21:55.941Z,11.73
2018-05-18T13:24:24.213Z,18.50
2018-05-18T13:26:52.463Z,8.87
2018-05-18T13:29:19.959Z,14.57
2018-05-18T13:31:47.506Z,13.57
2018-05-18T13:34:15.799Z,14.27
2018-05-18T13:36:43.314Z,12.00
2018-05-18T13:39:10.803Z,14.33
2018-05-18T13:41:39.055Z,12.33
2018-05-18T13:44:06.563Z,12.93
2018-05-18T13:46:34.051Z,11.70
2018-05-18T13:49:01.547Z,16.13
2018-05-18T13:51:29.805Z,16.00
2018-05-18T13:53:57.327Z,14.30
2018-05-18T13:56:24.838Z,13.90
2018-05-18T13:58:53.096Z,12.13
2018-05-18T14:01:20.603Z,13.77
2018-05-18T14:03:49.014Z,12.17
2018-05-18T14:06:16.531Z,9.30
2018-05-18T14:08:44.780Z,12.80
2018-05-18T14:11:13.050Z,18.70
2018-05-18T14:13:40.544Z,16.23
2018-05-18T14:16:08.806Z,14.20
2018-05-18T14:18:37.065Z,15.60
2018-05-18T14:21:04.582Z,11.97
2018-05-18T14:23:32.065Z,13.90
2018-05-18T14:25:59.540Z,16.00
2018-05-18T14:28:27.043Z,17.57
2018-05-18T14:30:54.552Z,15.50
2018-05-18T14:33:22.098Z,12.90
2018-05-18T14:35:49.583Z,11.50
2018-05-18T14:38:17.059Z,10.47
2018-05-18T14:40:45.299Z,10.50
2018-05-18T14:43:12.847Z,11.50
2018-05-18T14:45:40.294Z,14.23
2018-05-18T14:48:07.875Z,16.13
2018-05-18T14:50:36.070Z,12.90
2018-05-18T14:53:03.580Z,15.07
2018-05-18T14:55:31.068Z,8.23
2018-05-18T14:57:58.571Z,12.13
2018-05-18T15:00:26.813Z,9.03
2018-05-18T15:02:55.827Z,13.70
2018-05-18T15:05:24.098Z,13.97
2018-05-18T15:07:52.386Z,13.90
2018-05-18T15:10:20.653Z,12.47
2018-05-18T15:12:48.167Z,10.00
2018-05-18T15:15:15.651Z,11.83
2018-05-18T15:17:43.193Z,9.83
2018-05-18T15:20:10.674Z,14.80
2018-05-18T15:22:38.155Z,11.03
2018-05-18T15:25:06.425Z,13.30
2018-05-18T15:27:33.906Z,14.07
2018-05-18T15:30:01.404Z,13.77
2018-05-18T15:32:28.911Z,14.10
2018-05-18T15:34:57.183Z,12.13
2018-05-18T15:37:25.494Z,13.50
2018-05-18T15:39:52.953Z,17.17
2018-05-18T15:42:20.442Z,13.90
2018-05-18T15:44:47.944Z,12.37
2018-05-18T15:47:16.193Z,9.43
2018-05-18T15:49:44.469Z,14.60
2018-05-18T15:52:11.961Z,14.50
2018-05-18T15:54:40.241Z,11.90
2018-05-18T15:57:08.529Z,15.90
2018-05-18T15:59:36.048Z,13.60
2018-05-18T16:02:03.527Z,16.90
2018-05-18T16:04:31.808Z,15.10
2018-05-18T16:07:00.085Z,11.73
2018-05-18T16:09:28.340Z,15.73
2018-05-18T16:11:55.853Z,11.30
2018-05-18T16:14:23.340Z,13.40
2018-05-18T16:16:50.847Z,11.17
2018-05-18T16:19:18.339Z,12.10
2018-05-18T16:21:45.872Z,12.53
2018-05-18T16:24:13.345Z,15.93
2018-05-18T16:26:40.831Z,14.50
2018-05-18T16:29:08.344Z,13.90
2018-05-18T16:31:35.823Z,15.00
2018-05-18T16:34:03.340Z,13.90
2018-05-18T16:36:31.585Z,14.77
2018-05-18T16:38:59.094Z,13.07
2018-05-18T16:41:26.572Z,12.63
2018-05-18T16:43:54.103Z,9.73
2018-05-18T16:46:22.339Z,7.77
2018-05-18T16:48:49.878Z,12.03
2018-05-18T16:51:17.376Z,14.03
2018-05-18T16:53:44.871Z,17.03
2018-05-18T16:56:12.374Z,14.97
2018-05-18T16:58:39.857Z,16.77
2018-05-18T17:01:07.377Z,14.77
2018-05-18T17:03:34.857Z,12.60
2018-05-18T17:06:02.379Z,14.10
2018-05-18T17:08:29.929Z,16.03
2018-05-18T17:10:57.457Z,18.80
2018-05-18T17:13:24.944Z,17.37
2018-05-18T17:15:52.463Z,15.00
2018-05-18T17:18:19.945Z,10.00
2018-05-18T17:20:48.191Z,18.17
2018-05-18T17:23:15.702Z,10.07
2018-05-18T17:25:43.258Z,19.27
2018-05-18T17:28:10.693Z,9.97
2018-05-18T17:30:38.939Z,10.50
2018-05-18T17:33:06.538Z,17.27
2018-05-18T17:35:33.957Z,15.37
2018-05-18T17:38:01.437Z,14.03
2018-05-18T17:40:28.951Z,13.67
2018-05-18T17:42:56.508Z,16.30
2018-05-18T17:45:24.033Z,11.37
2018-05-18T17:47:52.324Z,11.87
2018-05-18T17:50:19.834Z,9.83
2018-05-18T17:52:47.306Z,11.10
2018-05-18T17:55:14.838Z,13.93
2018-05-18T17:57:42.323Z,9.50
2018-05-18T18:00:09.849Z,16.30
2018-05-18T18:02:37.415Z,11.97
2018-05-18T18:05:04.925Z,13.13
2018-05-18T18:07:33.340Z,14.33
2018-05-18T18:10:00.910Z,10.10
2018-05-18T18:12:28.424Z,9.27
2018-05-18T18:14:56.668Z,9.90
2018-05-18T18:17:24.181Z,16.10
2018-05-18T18:19:51.665Z,11.20
2018-05-18T18:22:19.236Z,10.30
2018-05-18T18:24:46.691Z,10.30
2018-05-18T18:27:14.213Z,16.37
2018-05-18T18:29:41.687Z,13.37
2018-05-18T18:32:09.203Z,14.40
2018-05-18T18:34:37.475Z,7.83
2018-05-18T18:37:04.979Z,14.93
2018-05-18T18:39:32.477Z,11.70
2018-05-18T18:42:00.070Z,9.80
2018-05-18T18:44:27.485Z,11.00
2018-05-18T18:46:55.090Z,14.90
2018-05-18T18:49:22.535Z,13.20
2018-05-18T18:51:50.780Z,13.23
2018-05-18T18:54:18.281Z,12.83
2018-05-18T18:56:45.804Z,9.30
2018-05-18T18:59:13.308Z,16.73
2018-05-18T19:01:40.799Z,10.82
2018-05-18T19:04:08.308Z,13.93
2018-05-18T19:06:36.553Z,16.80
2018-05-18T19:09:04.991Z,13.47
2018-05-18T19:11:33.267Z,10.30
2018-05-18T19:14:00.806Z,13.30
2018-05-18T19:16:29.054Z,11.80
2018-05-18T19:18:56.541Z,12.07
2018-05-18T19:21:24.834Z,11.27
2018-05-18T19:23:52.335Z,12.25
2018-05-18T19:26:19.855Z,15.07
2018-05-18T19:28:47.343Z,14.57
2018-05-18T19:31:14.858Z,9.37
2018-05-18T19:33:43.111Z,9.30
2018-05-18T19:36:11.400Z,15.85
2018-05-18T19:38:39.671Z,17.73
2018-05-18T19:41:07.948Z,16.60
2018-05-18T19:43:36.205Z,16.23
2018-05-18T19:46:03.735Z,19.87
2018-05-18T19:48:31.257Z,12.90
2018-05-18T19:50:59.548Z,12.47
2018-05-18T19:53:27.035Z,16.37
2018-05-18T19:55:54.544Z,19.73
2018-05-18T19:58:22.831Z,17.17
2018-05-18T20:00:51.088Z,14.10
2018-05-18T20:03:18.608Z,20.70
2018-05-18T20:05:46.110Z,17.12
2018-05-18T20:08:14.401Z,17.12
2018-05-18T20:10:42.665Z,15.90
2018-05-18T20:13:10.949Z,15.55
2018-05-18T20:15:39.204Z,19.52
2018-05-18T20:18:07.451Z,17.45
2018-05-18T20:20:34.952Z,21.90
2018-05-18T20:23:03.269Z,18.87
2018-05-18T20:25:30.798Z,19.02
2018-05-18T20:27:59.055Z,19.12
2018-05-18T20:30:26.572Z,19.90
2018-05-18T20:32:54.057Z,18.80
2018-05-18T20:35:21.590Z,16.98
2018-05-18T20:37:50.058Z,28.60
2018-05-18T20:40:17.570Z,20.62
2018-05-18T20:42:45.051Z,25.15
2018-05-18T20:45:13.332Z,20.17
2018-05-18T20:47:41.597Z,27.52
2018-05-18T20:50:09.111Z,21.40
2018-05-18T20:52:36.611Z,18.40
2018-05-18T20:55:04.123Z,27.40
2018-05-18T20:57:31.649Z,23.08
2018-05-18T20:59:59.931Z,20.08
2018-05-18T21:02:27.425Z,21.37
2018-05-18T21:04:54.946Z,20.73
2018-05-18T21:07:23.208Z,22.92
2018-05-18T21:09:51.509Z,20.25
2018-05-18T21:12:18.997Z,23.77
2018-05-18T21:14:46.547Z,24.80
2018-05-18T21:17:14.029Z,25.98
2018-05-18T21:19:41.554Z,23.27
2018-05-18T21:22:09.068Z,21.52
2018-05-18T21:24:36.590Z,32.10
2018-05-18T21:27:04.102Z,22.42
2018-05-18T21:29:32.412Z,25.45
2018-05-18T21:31:59.896Z,21.33
2018-05-18T21:34:27.435Z,22.27
2018-05-18T21:36:55.412Z,33.72
2018-05-18T21:39:22.905Z,30.17
2018-05-18T21:41:51.319Z,27.60
2018-05-18T21:44:19.587Z,23.98
2018-05-18T21:46:47.856Z,28.42
2018-05-18T21:49:15.446Z,22.92
2018-05-18T21:51:42.943Z,22.83
2018-05-18T21:54:10.437Z,18.52
2018-05-18T21:56:37.975Z,24.27
2018-05-18T21:59:05.467Z,21.87
2018-05-18T22:01:33.763Z,21.75
2018-05-18T22:04:01.243Z,22.58
2018-05-18T22:06:28.774Z,27.40
2018-05-18T22:08:56.247Z,27.95
2018-05-18T22:11:23.765Z,23.75
2018-05-18T22:13:52.048Z,29.48
2018-05-18T22:16:19.540Z,19.20
2018-05-18T22:18:47.130Z,23.30
2018-05-18T22:21:14.632Z,21.75
2018-05-18T22:23:42.915Z,19.48
2018-05-18T22:26:11.163Z,25.58
2018-05-18T22:28:38.678Z,20.10
2018-05-18T22:31:06.159Z,27.48
2018-05-18T22:33:33.698Z,22.60
2018-05-18T22:36:01.212Z,23.52
2018-05-18T22:38:28.734Z,18.65
2018-05-18T22:40:56.234Z,17.27
2018-05-18T22:43:24.527Z,20.37
2018-05-18T22:45:52.815Z,23.70
2018-05-18T22:48:20.331Z,22.55
2018-05-18T22:50:47.853Z,19.05
2018-05-18T22:53:15.415Z,20.52
2018-05-18T22:55:43.010Z,25.83
2018-05-18T22:58:12.008Z,20.88
2018-05-18T23:00:40.279Z,25.67
2018-05-18T23:03:07.875Z,18.62
2018-05-18T23:05:36.160Z,22.92
2018-05-18T23:08:03.702Z,26.08
2018-05-18T23:10:31.973Z,18.85
2018-05-18T23:12:59.606Z,22.00
2018-05-18T23:15:27.091Z,23.65
2018-05-18T23:17:54.629Z,19.23
2018-05-18T23:20:22.202Z,19.55
2018-05-18T23:22:49.754Z,22.15
2018-05-18T23:25:17.238Z,23.85
2018-05-18T23:27:44.758Z,23.98
2018-05-18T23:30:12.315Z,16.48
2018-05-18T23:32:39.828Z,17.65
2018-05-18T23:35:08.097Z,21.00
2018-05-18T23:37:36.367Z,19.60
2018-05-18T23:40:04.652Z,24.45
2018-05-18T23:42:33.050Z,21.83
2018-05-18T23:45:01.354Z,19.60
2018-05-18T23:47:28.865Z,22.20
2018-05-18T23:49:57.160Z,20.02
2018-05-18T23:52:24.812Z,17.90
2018-05-18T23:54:53.111Z,23.27
2018-05-18T23:57:20.643Z,21.30
2018-05-18T23:59:48.263Z,15.63
